sensor_id;sensor_type;location;lat;lon;timestamp;temperature;humidity
3406;DHT22;10008;48.682;9.016;2023-11-18T00:00:18;5.50;99.90
3406;DHT22;10008;48.682;9.016;2023-11-18T00:02:44;5.60;99.90
3406;DHT22;10008;48.682;9.016;2023-11-18T00:05:11;6.00;99.90
3406;DHT22;10008;48.682;9.016;2023-11-18T00:07:36;5.70;99.90
3406;DHT22;10008;48.682;9.016;2023-11-18T00:10:03;5.70;99.90
3406;DHT22;10008;48.682;9.016;2023-11-18T00:12:30;5.70;99.90
3406;DHT22;10008;48.682;9.016;2023-11-18T00:14:55;5.70;99.90
3406;DHT22;10008;48.682;9.016;2023-11-18T00:17:21;5.50;99.90
3406;DHT22;10008;48.682;9.016;2023-11-18T00:19:48;5.30;99.90
3406;DHT22;10008;48.682;9.016;2023-11-18T00:22:13;5.30;99.90
3406;DHT22;10008;48.682;9.016;2023-11-18T00:24:39;5.40;99.90
3406;DHT22;10008;48.682;9.016;2023-11-18T00:27:05;5.40;99.90
3406;DHT22;10008;48.682;9.016;2023-11-18T00:29:35;5.30;99.90
3406;DHT22;10008;48.682;9.016;2023-11-18T00:32:01;5.70;99.90
3406;DHT22;10008;48.682;9.016;2023-11-18T00:34:28;5.30;99.90
3406;DHT22;10008;48.682;9.016;2023-11-18T00:36:55;5.30;99.90
3406;DHT22;10008;48.682;9.016;2023-11-18T00:39:23;5.30;99.90
3406;DHT22;10008;48.682;9.016;2023-11-18T00:41:49;5.30;99.90
3406;DHT22;10008;48.682;9.016;2023-11-18T00:44:15;5.40;99.90
3406;DHT22;10008;48.682;9.016;2023-11-18T00:46:40;5.40;99.90
3406;DHT22;10008;48.682;9.016;2023-11-18T00:49:07;5.60;99.90
3406;DHT22;10008;48.682;9.016;2023-11-18T00:51:33;5.50;99.90
3406;DHT22;10008;48.682;9.016;2023-11-18T00:53:59;5.60;99.90
3406;DHT22;10008;48.682;9.016;2023-11-18T00:56:27;5.40;99.90
3406;DHT22;10008;48.682;9.016;2023-11-18T00:58:54;5.40;99.90
3406;DHT22;10008;48.682;9.016;2023-11-18T01:01:20;5.40;99.90
3406;DHT22;10008;48.682;9.016;2023-11-18T01:03:47;5.40;99.90
3406;DHT22;10008;48.682;9.016;2023-11-18T01:06:13;5.40;99.90
3406;DHT22;10008;48.682;9.016;2023-11-18T01:08:44;5.40;99.90
3406;DHT22;10008;48.682;9.016;2023-11-18T01:11:10;5.40;99.90
3406;DHT22;10008;48.682;9.016;2023-11-18T01:13:36;5.50;99.90
3406;DHT22;10008;48.682;9.016;2023-11-18T01:16:01;5.30;99.90
3406;DHT22;10008;48.682;9.016;2023-11-18T01:18:27;5.20;99.90
3406;DHT22;10008;48.682;9.016;2023-11-18T01:20:53;5.30;99.90
3406;DHT22;10008;48.682;9.016;2023-11-18T01:23:19;5.40;99.90
3406;DHT22;10008;48.682;9.016;2023-11-18T01:25:45;5.40;99.90
3406;DHT22;10008;48.682;9.016;2023-11-18T01:28:11;5.40;99.90
3406;DHT22;10008;48.682;9.016;2023-11-18T01:30:37;5.30;99.90
3406;DHT22;10008;48.682;9.016;2023-11-18T01:33:03;5.40;99.90
3406;DHT22;10008;48.682;9.016;2023-11-18T01:35:29;5.40;99.90
3406;DHT22;10008;48.682;9.016;2023-11-18T01:37:56;5.40;99.90
3406;DHT22;10008;48.682;9.016;2023-11-18T01:40:23;5.40;99.90
3406;DHT22;10008;48.682;9.016;2023-11-18T01:42:49;5.50;99.90
3406;DHT22;10008;48.682;9.016;2023-11-18T01:45:15;5.40;99.90
3406;DHT22;10008;48.682;9.016;2023-11-18T01:47:43;5.40;99.90
3406;DHT22;10008;48.682;9.016;2023-11-18T01:50:10;5.30;99.90
3406;DHT22;10008;48.682;9.016;2023-11-18T01:52:37;5.30;99.90
3406;DHT22;10008;48.682;9.016;2023-11-18T01:55:04;5.30;99.90
3406;DHT22;10008;48.682;9.016;2023-11-18T01:57:35;5.30;99.90
3406;DHT22;10008;48.682;9.016;2023-11-18T02:00:03;5.30;99.90
3406;DHT22;10008;48.682;9.016;2023-11-18T02:02:38;5.30;99.90
3406;DHT22;10008;48.682;9.016;2023-11-18T02:05:05;5.30;99.90
3406;DHT22;10008;48.682;9.016;2023-11-18T02:07:33;5.30;99.90
3406;DHT22;10008;48.682;9.016;2023-11-18T02:10:02;5.30;99.90
3406;DHT22;10008;48.682;9.016;2023-11-18T02:12:38;5.50;99.90
3406;DHT22;10008;48.682;9.016;2023-11-18T02:15:09;5.50;99.90
3406;DHT22;10008;48.682;9.016;2023-11-18T02:17:41;5.50;99.90
3406;DHT22;10008;48.682;9.016;2023-11-18T02:20:10;5.60;99.90
3406;DHT22;10008;48.682;9.016;2023-11-18T02:22:44;5.60;99.90
3406;DHT22;10008;48.682;9.016;2023-11-18T02:25:17;5.60;99.90
3406;DHT22;10008;48.682;9.016;2023-11-18T02:27:44;5.70;99.90
3406;DHT22;10008;48.682;9.016;2023-11-18T02:30:11;5.80;99.90
3406;DHT22;10008;48.682;9.016;2023-11-18T02:33:30;5.80;99.90
3406;DHT22;10008;48.682;9.016;2023-11-18T02:35:53;5.80;99.90
3406;DHT22;10008;48.682;9.016;2023-11-18T02:38:22;5.60;99.90
3406;DHT22;10008;48.682;9.016;2023-11-18T02:40:52;5.60;99.90
3406;DHT22;10008;48.682;9.016;2023-11-18T02:43:19;5.60;99.90
3406;DHT22;10008;48.682;9.016;2023-11-18T02:45:45;5.70;99.90
3406;DHT22;10008;48.682;9.016;2023-11-18T02:48:12;5.60;99.90
3406;DHT22;10008;48.682;9.016;2023-11-18T02:50:41;5.50;99.90
3406;DHT22;10008;48.682;9.016;2023-11-18T02:53:08;5.70;99.90
3406;DHT22;10008;48.682;9.016;2023-11-18T02:55:35;5.30;99.90
3406;DHT22;10008;48.682;9.016;2023-11-18T02:58:01;5.20;99.90
3406;DHT22;10008;48.682;9.016;2023-11-18T03:00:28;5.30;99.90
3406;DHT22;10008;48.682;9.016;2023-11-18T03:02:54;5.30;99.90
3406;DHT22;10008;48.682;9.016;2023-11-18T03:05:21;5.10;99.90
3406;DHT22;10008;48.682;9.016;2023-11-18T03:07:47;5.00;99.90
3406;DHT22;10008;48.682;9.016;2023-11-18T03:10:16;5.30;99.90
3406;DHT22;10008;48.682;9.016;2023-11-18T03:12:52;4.90;99.90
3406;DHT22;10008;48.682;9.016;2023-11-18T03:15:19;4.90;99.90
3406;DHT22;10008;48.682;9.016;2023-11-18T03:17:46;4.90;99.90
3406;DHT22;10008;48.682;9.016;2023-11-18T03:20:14;5.00;99.90
3406;DHT22;10008;48.682;9.016;2023-11-18T03:22:43;4.90;99.90
3406;DHT22;10008;48.682;9.016;2023-11-18T03:25:10;4.70;99.90
3406;DHT22;10008;48.682;9.016;2023-11-18T03:27:36;4.60;99.90
3406;DHT22;10008;48.682;9.016;2023-11-18T03:30:02;4.70;99.90
3406;DHT22;10008;48.682;9.016;2023-11-18T03:32:28;4.60;99.90
3406;DHT22;10008;48.682;9.016;2023-11-18T03:34:54;4.60;99.90
3406;DHT22;10008;48.682;9.016;2023-11-18T03:37:20;4.50;99.90
3406;DHT22;10008;48.682;9.016;2023-11-18T03:39:48;4.60;99.90
3406;DHT22;10008;48.682;9.016;2023-11-18T03:42:14;4.70;99.90
3406;DHT22;10008;48.682;9.016;2023-11-18T03:44:41;4.70;99.90
3406;DHT22;10008;48.682;9.016;2023-11-18T03:47:07;5.20;99.90
3406;DHT22;10008;48.682;9.016;2023-11-18T03:49:32;4.50;99.90
3406;DHT22;10008;48.682;9.016;2023-11-18T03:51:58;4.40;99.90
3406;DHT22;10008;48.682;9.016;2023-11-18T03:54:24;4.70;99.90
3406;DHT22;10008;48.682;9.016;2023-11-18T03:56:50;4.30;99.90
3406;DHT22;10008;48.682;9.016;2023-11-18T03:59:15;4.20;99.90
3406;DHT22;10008;48.682;9.016;2023-11-18T04:01:41;4.20;99.90
3406;DHT22;10008;48.682;9.016;2023-11-18T04:04:07;4.20;99.90
3406;DHT22;10008;48.682;9.016;2023-11-18T04:06:33;4.30;99.90
3406;DHT22;10008;48.682;9.016;2023-11-18T04:08:59;4.30;99.90
3406;DHT22;10008;48.682;9.016;2023-11-18T04:11:25;4.40;99.90
3406;DHT22;10008;48.682;9.016;2023-11-18T04:13:50;4.50;99.90
3406;DHT22;10008;48.682;9.016;2023-11-18T04:16:17;4.50;99.90
3406;DHT22;10008;48.682;9.016;2023-11-18T04:18:44;4.60;99.90
3406;DHT22;10008;48.682;9.016;2023-11-18T04:21:12;4.50;99.90
3406;DHT22;10008;48.682;9.016;2023-11-18T04:23:42;4.50;99.90
3406;DHT22;10008;48.682;9.016;2023-11-18T04:26:08;4.90;99.90
3406;DHT22;10008;48.682;9.016;2023-11-18T04:28:34;4.50;99.90
3406;DHT22;10008;48.682;9.016;2023-11-18T04:31:00;5.10;99.90
3406;DHT22;10008;48.682;9.016;2023-11-18T04:33:26;4.70;99.90
3406;DHT22;10008;48.682;9.016;2023-11-18T04:35:52;4.80;99.90
3406;DHT22;10008;48.682;9.016;2023-11-18T04:38:19;4.80;99.90
3406;DHT22;10008;48.682;9.016;2023-11-18T04:40:45;4.80;99.90
3406;DHT22;10008;48.682;9.016;2023-11-18T04:43:14;4.90;99.90
3406;DHT22;10008;48.682;9.016;2023-11-18T04:45:44;4.80;99.90
3406;DHT22;10008;48.682;9.016;2023-11-18T04:48:11;4.80;99.90
3406;DHT22;10008;48.682;9.016;2023-11-18T04:50:39;4.90;99.90
3406;DHT22;10008;48.682;9.016;2023-11-18T04:53:05;4.80;99.90
3406;DHT22;10008;48.682;9.016;2023-11-18T04:55:34;4.90;99.90
3406;DHT22;10008;48.682;9.016;2023-11-18T04:58:00;5.00;99.90
3406;DHT22;10008;48.682;9.016;2023-11-18T05:00:26;4.90;99.90
3406;DHT22;10008;48.682;9.016;2023-11-18T05:02:54;4.90;99.90
3406;DHT22;10008;48.682;9.016;2023-11-18T05:05:20;4.90;99.90
3406;DHT22;10008;48.682;9.016;2023-11-18T05:07:46;4.80;99.90
3406;DHT22;10008;48.682;9.016;2023-11-18T05:10:13;4.80;99.90
3406;DHT22;10008;48.682;9.016;2023-11-18T05:12:39;4.80;99.90
3406;DHT22;10008;48.682;9.016;2023-11-18T05:15:09;5.20;99.90
3406;DHT22;10008;48.682;9.016;2023-11-18T05:17:38;4.90;99.90
3406;DHT22;10008;48.682;9.016;2023-11-18T05:20:05;4.80;99.90
3406;DHT22;10008;48.682;9.016;2023-11-18T05:22:34;4.90;99.90
3406;DHT22;10008;48.682;9.016;2023-11-18T05:25:02;4.90;99.90
3406;DHT22;10008;48.682;9.016;2023-11-18T05:27:30;4.90;99.90
3406;DHT22;10008;48.682;9.016;2023-11-18T05:29:57;5.00;99.90
3406;DHT22;10008;48.682;9.016;2023-11-18T05:32:27;5.00;99.90
3406;DHT22;10008;48.682;9.016;2023-11-18T05:34:53;4.90;99.90
3406;DHT22;10008;48.682;9.016;2023-11-18T05:37:24;4.90;99.90
3406;DHT22;10008;48.682;9.016;2023-11-18T05:39:50;5.00;99.90
3406;DHT22;10008;48.682;9.016;2023-11-18T05:42:24;4.90;99.90
3406;DHT22;10008;48.682;9.016;2023-11-18T05:44:50;5.00;99.90
3406;DHT22;10008;48.682;9.016;2023-11-18T05:47:23;5.00;99.90
3406;DHT22;10008;48.682;9.016;2023-11-18T05:49:49;4.90;99.90
3406;DHT22;10008;48.682;9.016;2023-11-18T05:52:15;4.80;99.90
3406;DHT22;10008;48.682;9.016;2023-11-18T05:54:40;5.00;99.90
3406;DHT22;10008;48.682;9.016;2023-11-18T05:57:06;4.80;99.90
3406;DHT22;10008;48.682;9.016;2023-11-18T05:59:32;4.80;99.90
3406;DHT22;10008;48.682;9.016;2023-11-18T06:01:58;4.70;99.90
3406;DHT22;10008;48.682;9.016;2023-11-18T06:04:24;4.70;99.90
3406;DHT22;10008;48.682;9.016;2023-11-18T06:06:51;4.70;99.90
3406;DHT22;10008;48.682;9.016;2023-11-18T06:09:17;4.70;99.90
3406;DHT22;10008;48.682;9.016;2023-11-18T06:11:54;4.60;99.90
3406;DHT22;10008;48.682;9.016;2023-11-18T06:14:20;4.50;99.90
3406;DHT22;10008;48.682;9.016;2023-11-18T06:16:47;4.50;99.90
3406;DHT22;10008;48.682;9.016;2023-11-18T06:19:15;4.50;99.90
3406;DHT22;10008;48.682;9.016;2023-11-18T06:21:41;4.50;99.90
3406;DHT22;10008;48.682;9.016;2023-11-18T06:24:07;4.50;99.90
3406;DHT22;10008;48.682;9.016;2023-11-18T06:26:34;4.50;99.90
3406;DHT22;10008;48.682;9.016;2023-11-18T06:29:03;4.50;99.90
3406;DHT22;10008;48.682;9.016;2023-11-18T06:31:29;4.50;99.90
3406;DHT22;10008;48.682;9.016;2023-11-18T06:33:56;4.40;99.90
3406;DHT22;10008;48.682;9.016;2023-11-18T06:36:22;4.30;99.90
3406;DHT22;10008;48.682;9.016;2023-11-18T06:38:49;4.30;99.90
3406;DHT22;10008;48.682;9.016;2023-11-18T06:41:17;4.20;99.90
3406;DHT22;10008;48.682;9.016;2023-11-18T06:43:46;4.10;99.90
3406;DHT22;10008;48.682;9.016;2023-11-18T06:46:23;4.10;99.90
3406;DHT22;10008;48.682;9.016;2023-11-18T06:48:53;4.00;99.90
3406;DHT22;10008;48.682;9.016;2023-11-18T06:51:29;4.00;99.90
3406;DHT22;10008;48.682;9.016;2023-11-18T06:53:55;4.00;99.90
3406;DHT22;10008;48.682;9.016;2023-11-18T06:56:23;4.00;99.90
3406;DHT22;10008;48.682;9.016;2023-11-18T06:58:48;4.10;99.90
3406;DHT22;10008;48.682;9.016;2023-11-18T07:01:15;4.60;99.90
3406;DHT22;10008;48.682;9.016;2023-11-18T07:03:41;4.10;99.90
3406;DHT22;10008;48.682;9.016;2023-11-18T07:06:08;4.20;99.90
3406;DHT22;10008;48.682;9.016;2023-11-18T07:08:38;4.40;99.90
3406;DHT22;10008;48.682;9.016;2023-11-18T07:11:05;4.40;99.90
3406;DHT22;10008;48.682;9.016;2023-11-18T07:13:32;4.40;99.90
3406;DHT22;10008;48.682;9.016;2023-11-18T07:15:59;4.40;99.90
3406;DHT22;10008;48.682;9.016;2023-11-18T07:18:28;4.50;99.90
3406;DHT22;10008;48.682;9.016;2023-11-18T07:20:58;4.60;99.90
3406;DHT22;10008;48.682;9.016;2023-11-18T07:23:24;4.60;99.90
3406;DHT22;10008;48.682;9.016;2023-11-18T07:25:49;4.80;99.90
3406;DHT22;10008;48.682;9.016;2023-11-18T07:28:15;5.30;99.90
3406;DHT22;10008;48.682;9.016;2023-11-18T07:30:44;5.00;99.90
3406;DHT22;10008;48.682;9.016;2023-11-18T07:33:16;5.40;99.90
3406;DHT22;10008;48.682;9.016;2023-11-18T07:35:43;4.80;99.90
3406;DHT22;10008;48.682;9.016;2023-11-18T07:38:09;5.00;99.90
3406;DHT22;10008;48.682;9.016;2023-11-18T07:40:36;5.10;99.90
3406;DHT22;10008;48.682;9.016;2023-11-18T07:43:03;5.20;99.90
3406;DHT22;10008;48.682;9.016;2023-11-18T07:45:38;5.30;99.90
3406;DHT22;10008;48.682;9.016;2023-11-18T07:48:11;5.30;99.90
3406;DHT22;10008;48.682;9.016;2023-11-18T07:50:43;5.30;99.90
3406;DHT22;10008;48.682;9.016;2023-11-18T07:53:13;5.30;99.90
3406;DHT22;10008;48.682;9.016;2023-11-18T07:55:39;5.40;99.90
3406;DHT22;10008;48.682;9.016;2023-11-18T07:58:14;5.50;99.90
3406;DHT22;10008;48.682;9.016;2023-11-18T08:00:40;5.60;99.90
3406;DHT22;10008;48.682;9.016;2023-11-18T08:03:07;5.60;99.90
3406;DHT22;10008;48.682;9.016;2023-11-18T08:05:38;5.60;99.90
3406;DHT22;10008;48.682;9.016;2023-11-18T08:08:06;5.60;99.90
3406;DHT22;10008;48.682;9.016;2023-11-18T08:10:34;5.60;99.90
3406;DHT22;10008;48.682;9.016;2023-11-18T08:13:04;5.70;99.90
3406;DHT22;10008;48.682;9.016;2023-11-18T08:15:30;5.90;99.90
3406;DHT22;10008;48.682;9.016;2023-11-18T08:17:56;5.90;99.90
3406;DHT22;10008;48.682;9.016;2023-11-18T08:20:22;5.90;99.90
3406;DHT22;10008;48.682;9.016;2023-11-18T08:22:50;5.90;99.90
3406;DHT22;10008;48.682;9.016;2023-11-18T08:25:16;5.90;99.90
3406;DHT22;10008;48.682;9.016;2023-11-18T08:27:45;5.90;99.90
3406;DHT22;10008;48.682;9.016;2023-11-18T08:30:12;6.10;99.90
3406;DHT22;10008;48.682;9.016;2023-11-18T08:32:42;6.00;99.90
3406;DHT22;10008;48.682;9.016;2023-11-18T08:35:11;6.00;99.90
3406;DHT22;10008;48.682;9.016;2023-11-18T08:37:41;6.00;99.90
3406;DHT22;10008;48.682;9.016;2023-11-18T08:40:14;6.00;99.90
3406;DHT22;10008;48.682;9.016;2023-11-18T08:42:50;6.00;99.90
3406;DHT22;10008;48.682;9.016;2023-11-18T08:45:26;6.10;99.90
3406;DHT22;10008;48.682;9.016;2023-11-18T08:47:59;6.20;99.90
3406;DHT22;10008;48.682;9.016;2023-11-18T08:50:27;6.30;99.90
3406;DHT22;10008;48.682;9.016;2023-11-18T08:52:53;6.60;99.90
3406;DHT22;10008;48.682;9.016;2023-11-18T08:55:27;6.50;99.90
3406;DHT22;10008;48.682;9.016;2023-11-18T08:58:08;6.50;99.90
3406;DHT22;10008;48.682;9.016;2023-11-18T09:00:57;6.80;99.90
3406;DHT22;10008;48.682;9.016;2023-11-18T09:03:40;7.00;99.90
3406;DHT22;10008;48.682;9.016;2023-11-18T09:06:10;7.00;99.90
3406;DHT22;10008;48.682;9.016;2023-11-18T09:08:51;7.30;99.90
3406;DHT22;10008;48.682;9.016;2023-11-18T09:11:21;7.40;99.90
3406;DHT22;10008;48.682;9.016;2023-11-18T09:13:49;7.50;99.90
3406;DHT22;10008;48.682;9.016;2023-11-18T09:16:19;7.40;99.90
3406;DHT22;10008;48.682;9.016;2023-11-18T09:18:48;7.40;99.90
3406;DHT22;10008;48.682;9.016;2023-11-18T09:21:14;7.50;99.90
3406;DHT22;10008;48.682;9.016;2023-11-18T09:23:41;7.80;99.90
3406;DHT22;10008;48.682;9.016;2023-11-18T09:26:08;8.20;99.90
3406;DHT22;10008;48.682;9.016;2023-11-18T09:28:34;8.20;99.90
3406;DHT22;10008;48.682;9.016;2023-11-18T09:31:01;8.20;99.90
3406;DHT22;10008;48.682;9.016;2023-11-18T09:33:30;8.20;99.90
3406;DHT22;10008;48.682;9.016;2023-11-18T09:36:00;8.20;99.90
3406;DHT22;10008;48.682;9.016;2023-11-18T09:38:30;8.00;99.90
3406;DHT22;10008;48.682;9.016;2023-11-18T09:40:57;8.00;99.90
3406;DHT22;10008;48.682;9.016;2023-11-18T09:43:24;8.00;99.90
3406;DHT22;10008;48.682;9.016;2023-11-18T09:45:55;8.00;99.90
3406;DHT22;10008;48.682;9.016;2023-11-18T09:48:21;8.20;99.90
3406;DHT22;10008;48.682;9.016;2023-11-18T09:50:51;8.20;99.90
3406;DHT22;10008;48.682;9.016;2023-11-18T09:53:18;8.40;99.90
3406;DHT22;10008;48.682;9.016;2023-11-18T09:56:02;8.60;99.90
3406;DHT22;10008;48.682;9.016;2023-11-18T09:58:40;8.80;99.90
3406;DHT22;10008;48.682;9.016;2023-11-18T10:01:07;9.20;99.90
3406;DHT22;10008;48.682;9.016;2023-11-18T10:03:32;9.20;99.90
3406;DHT22;10008;48.682;9.016;2023-11-18T10:06:04;9.40;99.90
3406;DHT22;10008;48.682;9.016;2023-11-18T10:08:31;9.40;99.90
3406;DHT22;10008;48.682;9.016;2023-11-18T10:10:57;9.40;99.90
3406;DHT22;10008;48.682;9.016;2023-11-18T10:13:34;9.40;99.90
3406;DHT22;10008;48.682;9.016;2023-11-18T10:16:03;9.30;99.90
3406;DHT22;10008;48.682;9.016;2023-11-18T10:18:30;9.10;99.90
3406;DHT22;10008;48.682;9.016;2023-11-18T10:21:00;8.90;99.90
3406;DHT22;10008;48.682;9.016;2023-11-18T10:23:26;8.80;99.90
3406;DHT22;10008;48.682;9.016;2023-11-18T10:25:56;8.80;99.90
3406;DHT22;10008;48.682;9.016;2023-11-18T10:28:22;8.90;99.90
3406;DHT22;10008;48.682;9.016;2023-11-18T10:31:00;9.10;99.90
3406;DHT22;10008;48.682;9.016;2023-11-18T10:33:39;8.80;99.90
3406;DHT22;10008;48.682;9.016;2023-11-18T10:36:19;8.60;99.90
3406;DHT22;10008;48.682;9.016;2023-11-18T10:38:52;8.80;99.90
3406;DHT22;10008;48.682;9.016;2023-11-18T10:41:21;8.90;99.90
3406;DHT22;10008;48.682;9.016;2023-11-18T10:43:48;9.00;99.90
3406;DHT22;10008;48.682;9.016;2023-11-18T10:46:15;9.00;99.90
3406;DHT22;10008;48.682;9.016;2023-11-18T10:48:43;8.90;99.90
3406;DHT22;10008;48.682;9.016;2023-11-18T10:51:10;8.80;99.90
3406;DHT22;10008;48.682;9.016;2023-11-18T10:53:42;8.90;99.90
3406;DHT22;10008;48.682;9.016;2023-11-18T10:56:27;9.00;99.90
3406;DHT22;10008;48.682;9.016;2023-11-18T10:59:06;9.10;99.90
3406;DHT22;10008;48.682;9.016;2023-11-18T11:01:34;9.10;99.90
3406;DHT22;10008;48.682;9.016;2023-11-18T11:04:04;9.00;99.90
3406;DHT22;10008;48.682;9.016;2023-11-18T11:06:32;9.20;99.90
3406;DHT22;10008;48.682;9.016;2023-11-18T11:08:58;9.30;99.90
3406;DHT22;10008;48.682;9.016;2023-11-18T11:11:25;9.30;99.90
3406;DHT22;10008;48.682;9.016;2023-11-18T11:13:57;9.30;99.90
3406;DHT22;10008;48.682;9.016;2023-11-18T11:16:28;9.30;99.90
3406;DHT22;10008;48.682;9.016;2023-11-18T11:18:55;9.20;99.90
3406;DHT22;10008;48.682;9.016;2023-11-18T11:21:28;9.00;99.90
3406;DHT22;10008;48.682;9.016;2023-11-18T11:24:03;9.00;99.90
3406;DHT22;10008;48.682;9.016;2023-11-18T11:26:57;8.80;99.90
3406;DHT22;10008;48.682;9.016;2023-11-18T11:29:45;8.70;99.90
3406;DHT22;10008;48.682;9.016;2023-11-18T11:32:30;8.60;99.90
3406;DHT22;10008;48.682;9.016;2023-11-18T11:35:01;8.60;99.90
3406;DHT22;10008;48.682;9.016;2023-11-18T11:37:33;8.60;99.90
3406;DHT22;10008;48.682;9.016;2023-11-18T11:40:00;8.70;99.90
3406;DHT22;10008;48.682;9.016;2023-11-18T11:42:31;8.60;99.90
3406;DHT22;10008;48.682;9.016;2023-11-18T11:44:57;8.50;99.90
3406;DHT22;10008;48.682;9.016;2023-11-18T11:47:25;8.30;99.90
3406;DHT22;10008;48.682;9.016;2023-11-18T11:50:25;8.20;99.90
3406;DHT22;10008;48.682;9.016;2023-11-18T11:53:05;8.10;99.90
3406;DHT22;10008;48.682;9.016;2023-11-18T11:55:53;8.00;99.90
3406;DHT22;10008;48.682;9.016;2023-11-18T11:58:26;8.00;99.90
3406;DHT22;10008;48.682;9.016;2023-11-18T12:00:52;8.00;99.90
3406;DHT22;10008;48.682;9.016;2023-11-18T12:03:21;8.10;99.90
3406;DHT22;10008;48.682;9.016;2023-11-18T12:05:49;8.10;99.90
3406;DHT22;10008;48.682;9.016;2023-11-18T12:08:17;8.10;99.90
3406;DHT22;10008;48.682;9.016;2023-11-18T12:10:54;8.10;99.90
3406;DHT22;10008;48.682;9.016;2023-11-18T12:13:21;8.10;99.90
3406;DHT22;10008;48.682;9.016;2023-11-18T12:15:51;8.00;99.90
3406;DHT22;10008;48.682;9.016;2023-11-18T12:18:23;8.00;99.90
3406;DHT22;10008;48.682;9.016;2023-11-18T12:20:50;8.00;99.90
3406;DHT22;10008;48.682;9.016;2023-11-18T12:23:21;8.00;99.90
3406;DHT22;10008;48.682;9.016;2023-11-18T12:25:51;8.00;99.90
3406;DHT22;10008;48.682;9.016;2023-11-18T12:28:26;7.90;99.90
3406;DHT22;10008;48.682;9.016;2023-11-18T12:30:54;7.90;99.90
3406;DHT22;10008;48.682;9.016;2023-11-18T12:33:23;7.80;99.90
3406;DHT22;10008;48.682;9.016;2023-11-18T12:41:38;7.90;99.90
3406;DHT22;10008;48.682;9.016;2023-11-18T12:44:30;8.00;99.90
3406;DHT22;10008;48.682;9.016;2023-11-18T12:47:01;7.90;99.90
3406;DHT22;10008;48.682;9.016;2023-11-18T12:49:43;7.80;99.90
3406;DHT22;10008;48.682;9.016;2023-11-18T12:52:10;7.70;99.90
3406;DHT22;10008;48.682;9.016;2023-11-18T12:54:37;7.60;99.90
3406;DHT22;10008;48.682;9.016;2023-11-18T12:57:09;7.60;99.90
3406;DHT22;10008;48.682;9.016;2023-11-18T12:59:37;7.60;99.90
3406;DHT22;10008;48.682;9.016;2023-11-18T13:02:12;7.60;99.90
3406;DHT22;10008;48.682;9.016;2023-11-18T13:04:44;7.70;99.90
3406;DHT22;10008;48.682;9.016;2023-11-18T13:07:14;7.70;99.90
3406;DHT22;10008;48.682;9.016;2023-11-18T13:09:40;7.70;99.90
3406;DHT22;10008;48.682;9.016;2023-11-18T13:12:08;7.60;99.90
3406;DHT22;10008;48.682;9.016;2023-11-18T13:14:35;7.60;99.90
3406;DHT22;10008;48.682;9.016;2023-11-18T13:17:19;7.60;99.90
3406;DHT22;10008;48.682;9.016;2023-11-18T13:19:47;7.70;99.90
3406;DHT22;10008;48.682;9.016;2023-11-18T13:22:17;7.70;99.90
3406;DHT22;10008;48.682;9.016;2023-11-18T13:24:45;7.80;99.90
3406;DHT22;10008;48.682;9.016;2023-11-18T13:27:16;7.80;99.90
3406;DHT22;10008;48.682;9.016;2023-11-18T13:29:48;7.90;99.90
3406;DHT22;10008;48.682;9.016;2023-11-18T13:32:16;8.00;99.90
3406;DHT22;10008;48.682;9.016;2023-11-18T13:34:42;8.00;99.90
3406;DHT22;10008;48.682;9.016;2023-11-18T13:37:08;8.00;99.90
3406;DHT22;10008;48.682;9.016;2023-11-18T13:39:35;8.00;99.90
3406;DHT22;10008;48.682;9.016;2023-11-18T13:42:23;8.00;99.90
3406;DHT22;10008;48.682;9.016;2023-11-18T13:44:49;7.90;99.90
3406;DHT22;10008;48.682;9.016;2023-11-18T13:47:20;7.90;99.90
3406;DHT22;10008;48.682;9.016;2023-11-18T13:49:48;7.80;99.90
3406;DHT22;10008;48.682;9.016;2023-11-18T13:52:15;7.80;99.90
3406;DHT22;10008;48.682;9.016;2023-11-18T13:54:44;7.80;99.90
3406;DHT22;10008;48.682;9.016;2023-11-18T13:57:11;7.60;99.90
3406;DHT22;10008;48.682;9.016;2023-11-18T13:59:38;7.60;99.90
3406;DHT22;10008;48.682;9.016;2023-11-18T14:02:10;7.50;99.90
3406;DHT22;10008;48.682;9.016;2023-11-18T14:04:38;7.50;99.90
3406;DHT22;10008;48.682;9.016;2023-11-18T14:07:05;7.50;99.90
3406;DHT22;10008;48.682;9.016;2023-11-18T14:09:31;7.40;99.90
3406;DHT22;10008;48.682;9.016;2023-11-18T14:12:02;7.40;99.90
3406;DHT22;10008;48.682;9.016;2023-11-18T14:14:28;7.40;99.90
3406;DHT22;10008;48.682;9.016;2023-11-18T14:16:55;7.50;99.90
3406;DHT22;10008;48.682;9.016;2023-11-18T14:19:25;7.50;99.90
3406;DHT22;10008;48.682;9.016;2023-11-18T14:21:51;7.50;99.90
3406;DHT22;10008;48.682;9.016;2023-11-18T14:24:17;7.50;99.90
3406;DHT22;10008;48.682;9.016;2023-11-18T14:26:44;7.50;99.90
3406;DHT22;10008;48.682;9.016;2023-11-18T14:29:10;7.60;99.90
3406;DHT22;10008;48.682;9.016;2023-11-18T14:31:37;7.60;99.90
3406;DHT22;10008;48.682;9.016;2023-11-18T14:34:03;7.60;99.90
3406;DHT22;10008;48.682;9.016;2023-11-18T14:36:29;7.60;99.90
3406;DHT22;10008;48.682;9.016;2023-11-18T14:38:55;7.60;99.90
3406;DHT22;10008;48.682;9.016;2023-11-18T14:41:21;7.60;99.90
3406;DHT22;10008;48.682;9.016;2023-11-18T14:43:52;7.60;99.90
3406;DHT22;10008;48.682;9.016;2023-11-18T14:46:17;7.70;99.90
3406;DHT22;10008;48.682;9.016;2023-11-18T14:48:44;7.70;99.90
3406;DHT22;10008;48.682;9.016;2023-11-18T14:51:10;7.70;99.90
3406;DHT22;10008;48.682;9.016;2023-11-18T14:53:36;7.70;99.90
3406;DHT22;10008;48.682;9.016;2023-11-18T14:56:03;7.70;99.90
3406;DHT22;10008;48.682;9.016;2023-11-18T14:58:31;7.70;99.90
3406;DHT22;10008;48.682;9.016;2023-11-18T15:01:01;7.70;99.90
3406;DHT22;10008;48.682;9.016;2023-11-18T15:03:27;7.70;99.90
3406;DHT22;10008;48.682;9.016;2023-11-18T15:05:53;7.70;99.90
3406;DHT22;10008;48.682;9.016;2023-11-18T15:08:19;7.70;99.90
3406;DHT22;10008;48.682;9.016;2023-11-18T15:10:45;7.70;99.90
3406;DHT22;10008;48.682;9.016;2023-11-18T15:13:11;7.70;99.90
3406;DHT22;10008;48.682;9.016;2023-11-18T15:15:46;7.70;99.90
3406;DHT22;10008;48.682;9.016;2023-11-18T15:18:16;7.70;99.90
3406;DHT22;10008;48.682;9.016;2023-11-18T15:20:43;7.80;99.90
3406;DHT22;10008;48.682;9.016;2023-11-18T15:23:10;7.70;99.90
3406;DHT22;10008;48.682;9.016;2023-11-18T15:25:36;7.70;99.90
3406;DHT22;10008;48.682;9.016;2023-11-18T15:28:02;7.60;99.90
3406;DHT22;10008;48.682;9.016;2023-11-18T15:30:29;7.60;99.90
3406;DHT22;10008;48.682;9.016;2023-11-18T15:32:55;7.50;99.90
3406;DHT22;10008;48.682;9.016;2023-11-18T15:35:22;7.50;99.90
3406;DHT22;10008;48.682;9.016;2023-11-18T15:37:48;7.70;99.90
3406;DHT22;10008;48.682;9.016;2023-11-18T15:40:15;7.70;99.90
3406;DHT22;10008;48.682;9.016;2023-11-18T15:42:45;7.70;99.90
3406;DHT22;10008;48.682;9.016;2023-11-18T15:45:22;7.70;99.90
3406;DHT22;10008;48.682;9.016;2023-11-18T15:47:54;7.80;99.90
3406;DHT22;10008;48.682;9.016;2023-11-18T15:50:20;7.70;99.90
3406;DHT22;10008;48.682;9.016;2023-11-18T15:52:48;7.80;99.90
3406;DHT22;10008;48.682;9.016;2023-11-18T15:55:14;7.90;99.90
3406;DHT22;10008;48.682;9.016;2023-11-18T15:57:44;7.90;99.90
3406;DHT22;10008;48.682;9.016;2023-11-18T16:00:13;7.90;99.90
3406;DHT22;10008;48.682;9.016;2023-11-18T16:02:45;7.80;99.90
3406;DHT22;10008;48.682;9.016;2023-11-18T16:05:16;7.80;99.90
3406;DHT22;10008;48.682;9.016;2023-11-18T16:07:47;7.80;99.90
3406;DHT22;10008;48.682;9.016;2023-11-18T16:10:15;7.70;99.90
3406;DHT22;10008;48.682;9.016;2023-11-18T16:12:45;7.70;99.90
3406;DHT22;10008;48.682;9.016;2023-11-18T16:15:12;8.10;99.90
3406;DHT22;10008;48.682;9.016;2023-11-18T16:17:40;7.70;99.90